sensor_id;sensor_type;location;lat;lon;timestamp;P1;durP1;ratioP1;P2;durP2;ratioP2
11123;SDS011;5616;42.692;23.312;2022-07-29T00:01:51;10.07;;;9.07;;
11123;SDS011;5616;42.692;23.312;2022-07-29T00:04:18;9.63;;;8.70;;
11123;SDS011;5616;42.692;23.312;2022-07-29T00:06:47;9.07;;;8.27;;
11123;SDS011;5616;42.692;23.312;2022-07-29T00:09:14;9.93;;;8.30;;
11123;SDS011;5616;42.692;23.312;2022-07-29T00:11:41;8.57;;;7.77;;
11123;SDS011;5616;42.692;23.312;2022-07-29T00:14:08;8.60;;;7.70;;
11123;SDS011;5616;42.692;23.312;2022-07-29T00:16:35;9.60;;;8.60;;
11123;SDS011;5616;42.692;23.312;2022-07-29T00:19:02;10.07;;;7.80;;
11123;SDS011;5616;42.692;23.312;2022-07-29T00:21:29;9.90;;;8.30;;
11123;SDS011;5616;42.692;23.312;2022-07-29T00:23:58;10.70;;;8.23;;
11123;SDS011;5616;42.692;23.312;2022-07-29T00:26:24;9.13;;;8.23;;
11123;SDS011;5616;42.692;23.312;2022-07-29T00:28:56;10.00;;;8.87;;
11123;SDS011;5616;42.692;23.312;2022-07-29T00:31:24;9.77;;;8.87;;
11123;SDS011;5616;42.692;23.312;2022-07-29T00:33:51;9.30;;;8.17;;
11123;SDS011;5616;42.692;23.312;2022-07-29T00:36:18;9.57;;;8.40;;
11123;SDS011;5616;42.692;23.312;2022-07-29T00:38:45;9.47;;;8.37;;
11123;SDS011;5616;42.692;23.312;2022-07-29T00:41:14;9.43;;;8.53;;
11123;SDS011;5616;42.692;23.312;2022-07-29T00:43:41;10.17;;;8.60;;
11123;SDS011;5616;42.692;23.312;2022-07-29T00:46:08;10.00;;;8.90;;
11123;SDS011;5616;42.692;23.312;2022-07-29T00:48:35;9.60;;;8.70;;
11123;SDS011;5616;42.692;23.312;2022-07-29T00:51:03;11.13;;;9.87;;
11123;SDS011;5616;42.692;23.312;2022-07-29T00:53:32;12.27;;;10.53;;
11123;SDS011;5616;42.692;23.312;2022-07-29T00:56:00;12.00;;;10.23;;
11123;SDS011;5616;42.692;23.312;2022-07-29T00:58:28;13.87;;;10.90;;
11123;SDS011;5616;42.692;23.312;2022-07-29T01:00:55;11.77;;;10.67;;
11123;SDS011;5616;42.692;23.312;2022-07-29T01:03:24;11.97;;;10.87;;
11123;SDS011;5616;42.692;23.312;2022-07-29T01:05:51;11.93;;;10.17;;
11123;SDS011;5616;42.692;23.312;2022-07-29T01:08:19;11.30;;;10.10;;
11123;SDS011;5616;42.692;23.312;2022-07-29T01:10:47;12.27;;;10.10;;
11123;SDS011;5616;42.692;23.312;2022-07-29T01:13:15;11.77;;;10.57;;
11123;SDS011;5616;42.692;23.312;2022-07-29T01:15:45;12.43;;;11.10;;
11123;SDS011;5616;42.692;23.312;2022-07-29T01:18:16;13.20;;;11.00;;
11123;SDS011;5616;42.692;23.312;2022-07-29T01:20:53;11.83;;;10.63;;
11123;SDS011;5616;42.692;23.312;2022-07-29T01:23:52;12.23;;;10.93;;
11123;SDS011;5616;42.692;23.312;2022-07-29T01:26:41;12.20;;;10.90;;
11123;SDS011;5616;42.692;23.312;2022-07-29T01:29:14;12.60;;;11.30;;
11123;SDS011;5616;42.692;23.312;2022-07-29T01:31:47;12.50;;;11.20;;
11123;SDS011;5616;42.692;23.312;2022-07-29T01:34:21;12.27;;;10.97;;
11123;SDS011;5616;42.692;23.312;2022-07-29T01:36:53;12.20;;;10.60;;
11123;SDS011;5616;42.692;23.312;2022-07-29T01:39:27;11.93;;;10.77;;
11123;SDS011;5616;42.692;23.312;2022-07-29T01:41:59;12.27;;;11.13;;
11123;SDS011;5616;42.692;23.312;2022-07-29T01:44:34;12.13;;;10.90;;
11123;SDS011;5616;42.692;23.312;2022-07-29T01:47:08;12.57;;;11.37;;
11123;SDS011;5616;42.692;23.312;2022-07-29T01:49:39;12.40;;;11.13;;
11123;SDS011;5616;42.692;23.312;2022-07-29T01:52:11;16.17;;;12.17;;
11123;SDS011;5616;42.692;23.312;2022-07-29T01:54:42;13.07;;;11.67;;
11123;SDS011;5616;42.692;23.312;2022-07-29T01:57:13;13.40;;;11.23;;
11123;SDS011;5616;42.692;23.312;2022-07-29T01:59:43;14.80;;;11.20;;
11123;SDS011;5616;42.692;23.312;2022-07-29T02:02:13;14.33;;;11.00;;
11123;SDS011;5616;42.692;23.312;2022-07-29T02:04:41;12.70;;;11.40;;
11123;SDS011;5616;42.692;23.312;2022-07-29T02:07:13;12.23;;;10.93;;
11123;SDS011;5616;42.692;23.312;2022-07-29T02:09:44;14.23;;;11.67;;
11123;SDS011;5616;42.692;23.312;2022-07-29T02:12:13;12.97;;;11.50;;
11123;SDS011;5616;42.692;23.312;2022-07-29T02:14:45;18.37;;;12.47;;
11123;SDS011;5616;42.692;23.312;2022-07-29T02:17:15;13.93;;;11.67;;
11123;SDS011;5616;42.692;23.312;2022-07-29T02:19:47;12.60;;;11.40;;
11123;SDS011;5616;42.692;23.312;2022-07-29T02:22:15;13.37;;;12.07;;
11123;SDS011;5616;42.692;23.312;2022-07-29T02:24:44;14.30;;;11.67;;
11123;SDS011;5616;42.692;23.312;2022-07-29T02:27:12;13.00;;;11.70;;
11123;SDS011;5616;42.692;23.312;2022-07-29T02:29:41;13.73;;;12.33;;
11123;SDS011;5616;42.692;23.312;2022-07-29T02:32:11;12.67;;;11.40;;
11123;SDS011;5616;42.692;23.312;2022-07-29T02:34:41;14.13;;;11.17;;
11123;SDS011;5616;42.692;23.312;2022-07-29T02:37:10;13.70;;;12.30;;
11123;SDS011;5616;42.692;23.312;2022-07-29T02:39:37;13.10;;;11.73;;
11123;SDS011;5616;42.692;23.312;2022-07-29T02:42:07;12.20;;;10.90;;
11123;SDS011;5616;42.692;23.312;2022-07-29T02:44:38;12.53;;;11.33;;
11123;SDS011;5616;42.692;23.312;2022-07-29T02:47:10;13.50;;;11.67;;
11123;SDS011;5616;42.692;23.312;2022-07-29T02:49:45;13.77;;;12.37;;
11123;SDS011;5616;42.692;23.312;2022-07-29T02:52:19;14.73;;;12.00;;
11123;SDS011;5616;42.692;23.312;2022-07-29T02:54:51;14.80;;;12.73;;
11123;SDS011;5616;42.692;23.312;2022-07-29T02:57:22;16.77;;;12.37;;
11123;SDS011;5616;42.692;23.312;2022-07-29T02:59:57;20.13;;;12.00;;
11123;SDS011;5616;42.692;23.312;2022-07-29T03:02:31;12.83;;;11.53;;
11123;SDS011;5616;42.692;23.312;2022-07-29T03:05:00;12.80;;;11.50;;
11123;SDS011;5616;42.692;23.312;2022-07-29T03:07:29;14.20;;;12.13;;
11123;SDS011;5616;42.692;23.312;2022-07-29T03:09:57;13.33;;;11.93;;
11123;SDS011;5616;42.692;23.312;2022-07-29T03:12:25;16.00;;;12.53;;
11123;SDS011;5616;42.692;23.312;2022-07-29T03:14:53;13.07;;;11.67;;
11123;SDS011;5616;42.692;23.312;2022-07-29T03:17:21;14.50;;;11.87;;
11123;SDS011;5616;42.692;23.312;2022-07-29T03:19:50;14.27;;;11.07;;
11123;SDS011;5616;42.692;23.312;2022-07-29T03:22:18;15.63;;;12.10;;
11123;SDS011;5616;42.692;23.312;2022-07-29T03:24:45;12.23;;;10.63;;
11123;SDS011;5616;42.692;23.312;2022-07-29T03:27:12;12.10;;;9.77;;
11123;SDS011;5616;42.692;23.312;2022-07-29T03:29:39;11.07;;;9.57;;
11123;SDS011;5616;42.692;23.312;2022-07-29T03:32:06;14.70;;;10.50;;
11123;SDS011;5616;42.692;23.312;2022-07-29T03:34:34;13.27;;;10.33;;
11123;SDS011;5616;42.692;23.312;2022-07-29T03:37:04;12.30;;;10.57;;
11123;SDS011;5616;42.692;23.312;2022-07-29T03:39:33;15.30;;;11.00;;
11123;SDS011;5616;42.692;23.312;2022-07-29T03:42:03;15.40;;;11.33;;
11123;SDS011;5616;42.692;23.312;2022-07-29T03:44:33;13.43;;;10.43;;
11123;SDS011;5616;42.692;23.312;2022-07-29T03:47:02;14.67;;;10.80;;
11123;SDS011;5616;42.692;23.312;2022-07-29T03:49:33;14.10;;;10.33;;
11123;SDS011;5616;42.692;23.312;2022-07-29T03:52:05;14.03;;;9.70;;
11123;SDS011;5616;42.692;23.312;2022-07-29T03:54:32;12.47;;;10.37;;
11123;SDS011;5616;42.692;23.312;2022-07-29T03:57:00;12.13;;;9.93;;
11123;SDS011;5616;42.692;23.312;2022-07-29T03:59:28;14.30;;;10.50;;
11123;SDS011;5616;42.692;23.312;2022-07-29T04:01:57;15.60;;;11.63;;
11123;SDS011;5616;42.692;23.312;2022-07-29T04:04:25;14.90;;;11.90;;
11123;SDS011;5616;42.692;23.312;2022-07-29T04:06:52;13.73;;;12.33;;
11123;SDS011;5616;42.692;23.312;2022-07-29T04:09:20;13.57;;;12.27;;
11123;SDS011;5616;42.692;23.312;2022-07-29T04:11:47;16.60;;;12.90;;
11123;SDS011;5616;42.692;23.312;2022-07-29T04:14:14;13.93;;;12.37;;
11123;SDS011;5616;42.692;23.312;2022-07-29T04:16:41;13.57;;;12.17;;
11123;SDS011;5616;42.692;23.312;2022-07-29T04:19:08;13.43;;;11.77;;
11123;SDS011;5616;42.692;23.312;2022-07-29T04:21:36;11.60;;;10.40;;
11123;SDS011;5616;42.692;23.312;2022-07-29T04:24:04;12.47;;;10.80;;
11123;SDS011;5616;42.692;23.312;2022-07-29T04:26:33;11.80;;;10.70;;
11123;SDS011;5616;42.692;23.312;2022-07-29T04:29:00;15.40;;;10.00;;
11123;SDS011;5616;42.692;23.312;2022-07-29T04:31:28;11.43;;;9.63;;
11123;SDS011;5616;42.692;23.312;2022-07-29T04:33:54;9.63;;;8.63;;
11123;SDS011;5616;42.692;23.312;2022-07-29T04:36:21;9.43;;;8.37;;
11123;SDS011;5616;42.692;23.312;2022-07-29T04:38:48;12.70;;;9.60;;
11123;SDS011;5616;42.692;23.312;2022-07-29T04:41:15;12.32;;;11.00;;
11123;SDS011;5616;42.692;23.312;2022-07-29T04:43:43;13.73;;;11.13;;
11123;SDS011;5616;42.692;23.312;2022-07-29T04:46:11;14.50;;;11.43;;
11123;SDS011;5616;42.692;23.312;2022-07-29T04:48:38;11.80;;;10.60;;
11123;SDS011;5616;42.692;23.312;2022-07-29T04:51:05;12.07;;;10.17;;
11123;SDS011;5616;42.692;23.312;2022-07-29T04:53:32;10.90;;;9.60;;
11123;SDS011;5616;42.692;23.312;2022-07-29T04:55:59;11.10;;;8.87;;
11123;SDS011;5616;42.692;23.312;2022-07-29T04:58:26;9.70;;;8.43;;
11123;SDS011;5616;42.692;23.312;2022-07-29T05:00:54;9.67;;;8.70;;
11123;SDS011;5616;42.692;23.312;2022-07-29T05:03:21;13.33;;;9.33;;
11123;SDS011;5616;42.692;23.312;2022-07-29T05:05:48;9.23;;;8.03;;
11123;SDS011;5616;42.692;23.312;2022-07-29T05:08:14;37.07;;;20.50;;
11123;SDS011;5616;42.692;23.312;2022-07-29T05:10:42;18.90;;;11.33;;
11123;SDS011;5616;42.692;23.312;2022-07-29T05:13:09;14.33;;;11.33;;
11123;SDS011;5616;42.692;23.312;2022-07-29T05:15:36;10.57;;;9.27;;
11123;SDS011;5616;42.692;23.312;2022-07-29T05:18:05;13.17;;;9.57;;
11123;SDS011;5616;42.692;23.312;2022-07-29T05:20:32;14.13;;;7.97;;
11123;SDS011;5616;42.692;23.312;2022-07-29T05:23:00;7.27;;;6.57;;
11123;SDS011;5616;42.692;23.312;2022-07-29T05:25:28;9.13;;;6.93;;
11123;SDS011;5616;42.692;23.312;2022-07-29T05:27:55;8.10;;;7.00;;
11123;SDS011;5616;42.692;23.312;2022-07-29T05:30:22;7.43;;;6.73;;
11123;SDS011;5616;42.692;23.312;2022-07-29T05:32:49;15.90;;;9.30;;
11123;SDS011;5616;42.692;23.312;2022-07-29T05:35:18;14.23;;;9.87;;
11123;SDS011;5616;42.692;23.312;2022-07-29T05:37:44;10.73;;;7.70;;
11123;SDS011;5616;42.692;23.312;2022-07-29T05:40:11;13.67;;;9.33;;
11123;SDS011;5616;42.692;23.312;2022-07-29T05:42:38;14.10;;;9.53;;
11123;SDS011;5616;42.692;23.312;2022-07-29T05:45:05;12.87;;;7.40;;
11123;SDS011;5616;42.692;23.312;2022-07-29T05:47:33;11.47;;;9.23;;
11123;SDS011;5616;42.692;23.312;2022-07-29T05:50:00;17.23;;;10.93;;
11123;SDS011;5616;42.692;23.312;2022-07-29T05:52:29;12.27;;;8.13;;
11123;SDS011;5616;42.692;23.312;2022-07-29T05:54:56;9.40;;;6.40;;
11123;SDS011;5616;42.692;23.312;2022-07-29T05:57:23;7.03;;;6.30;;
11123;SDS011;5616;42.692;23.312;2022-07-29T05:59:51;6.13;;;5.53;;
11123;SDS011;5616;42.692;23.312;2022-07-29T06:02:18;10.57;;;8.33;;
11123;SDS011;5616;42.692;23.312;2022-07-29T06:04:45;7.80;;;5.77;;
11123;SDS011;5616;42.692;23.312;2022-07-29T06:07:13;18.00;;;12.17;;
11123;SDS011;5616;42.692;23.312;2022-07-29T06:09:42;9.18;;;7.13;;
11123;SDS011;5616;42.692;23.312;2022-07-29T06:12:09;6.90;;;5.82;;
11123;SDS011;5616;42.692;23.312;2022-07-29T06:14:36;6.83;;;4.90;;
11123;SDS011;5616;42.692;23.312;2022-07-29T06:17:04;6.03;;;5.30;;
11123;SDS011;5616;42.692;23.312;2022-07-29T06:19:33;6.15;;;5.35;;
11123;SDS011;5616;42.692;23.312;2022-07-29T06:22:00;5.88;;;5.28;;
11123;SDS011;5616;42.692;23.312;2022-07-29T06:24:27;8.00;;;5.38;;
11123;SDS011;5616;42.692;23.312;2022-07-29T06:26:55;5.43;;;4.93;;
11123;SDS011;5616;42.692;23.312;2022-07-29T06:29:22;6.93;;;5.32;;
11123;SDS011;5616;42.692;23.312;2022-07-29T06:31:49;7.05;;;5.03;;
11123;SDS011;5616;42.692;23.312;2022-07-29T06:34:16;7.65;;;5.13;;
11123;SDS011;5616;42.692;23.312;2022-07-29T06:36:44;5.47;;;4.95;;
11123;SDS011;5616;42.692;23.312;2022-07-29T06:39:11;8.20;;;4.90;;
11123;SDS011;5616;42.692;23.312;2022-07-29T06:41:38;4.90;;;4.45;;
11123;SDS011;5616;42.692;23.312;2022-07-29T06:44:09;5.40;;;4.75;;
11123;SDS011;5616;42.692;23.312;2022-07-29T06:46:36;5.43;;;4.90;;
11123;SDS011;5616;42.692;23.312;2022-07-29T06:49:03;6.00;;;4.50;;
11123;SDS011;5616;42.692;23.312;2022-07-29T06:51:30;5.53;;;4.40;;
11123;SDS011;5616;42.692;23.312;2022-07-29T06:53:57;5.28;;;4.68;;
11123;SDS011;5616;42.692;23.312;2022-07-29T06:56:24;5.70;;;4.13;;
11123;SDS011;5616;42.692;23.312;2022-07-29T06:58:51;4.78;;;4.28;;
11123;SDS011;5616;42.692;23.312;2022-07-29T07:01:20;5.57;;;4.55;;
11123;SDS011;5616;42.692;23.312;2022-07-29T07:03:47;6.93;;;4.50;;
11123;SDS011;5616;42.692;23.312;2022-07-29T07:06:14;10.48;;;4.28;;
11123;SDS011;5616;42.692;23.312;2022-07-29T07:08:41;6.18;;;4.25;;
11123;SDS011;5616;42.692;23.312;2022-07-29T07:11:08;7.80;;;4.63;;
11123;SDS011;5616;42.692;23.312;2022-07-29T07:13:35;6.30;;;4.20;;
11123;SDS011;5616;42.692;23.312;2022-07-29T07:16:02;6.45;;;5.40;;
11123;SDS011;5616;42.692;23.312;2022-07-29T07:18:32;10.88;;;6.47;;
11123;SDS011;5616;42.692;23.312;2022-07-29T07:20:59;9.50;;;5.80;;
11123;SDS011;5616;42.692;23.312;2022-07-29T07:23:26;9.43;;;5.85;;
11123;SDS011;5616;42.692;23.312;2022-07-29T07:25:53;8.57;;;5.88;;
11123;SDS011;5616;42.692;23.312;2022-07-29T07:28:20;18.65;;;10.00;;
11123;SDS011;5616;42.692;23.312;2022-07-29T07:30:47;4.50;;;4.10;;
11123;SDS011;5616;42.692;23.312;2022-07-29T07:33:14;28.85;;;13.57;;
11123;SDS011;5616;42.692;23.312;2022-07-29T07:35:42;20.02;;;8.68;;
11123;SDS011;5616;42.692;23.312;2022-07-29T07:38:09;7.78;;;5.43;;
11123;SDS011;5616;42.692;23.312;2022-07-29T07:40:36;13.93;;;7.55;;
11123;SDS011;5616;42.692;23.312;2022-07-29T07:43:03;8.88;;;4.72;;
11123;SDS011;5616;42.692;23.312;2022-07-29T07:45:30;6.38;;;4.15;;
11123;SDS011;5616;42.692;23.312;2022-07-29T07:47:58;10.93;;;6.20;;
11123;SDS011;5616;42.692;23.312;2022-07-29T07:50:25;6.80;;;4.90;;
11123;SDS011;5616;42.692;23.312;2022-07-29T07:52:54;10.80;;;6.35;;
11123;SDS011;5616;42.692;23.312;2022-07-29T07:55:22;9.77;;;6.18;;
11123;SDS011;5616;42.692;23.312;2022-07-29T07:57:49;8.55;;;4.70;;
11123;SDS011;5616;42.692;23.312;2022-07-29T08:00:16;4.55;;;3.55;;
11123;SDS011;5616;42.692;23.312;2022-07-29T08:02:44;8.00;;;5.43;;
11123;SDS011;5616;42.692;23.312;2022-07-29T08:05:11;13.38;;;8.35;;
11123;SDS011;5616;42.692;23.312;2022-07-29T08:07:42;7.88;;;5.18;;
11123;SDS011;5616;42.692;23.312;2022-07-29T08:10:11;4.45;;;2.90;;
11123;SDS011;5616;42.692;23.312;2022-07-29T08:12:38;4.90;;;3.60;;
11123;SDS011;5616;42.692;23.312;2022-07-29T08:15:06;5.18;;;3.40;;
11123;SDS011;5616;42.692;23.312;2022-07-29T08:17:33;7.95;;;3.95;;
11123;SDS011;5616;42.692;23.312;2022-07-29T08:20:01;4.13;;;2.38;;
11123;SDS011;5616;42.692;23.312;2022-07-29T08:22:28;18.67;;;9.45;;
11123;SDS011;5616;42.692;23.312;2022-07-29T08:24:54;5.15;;;3.90;;
11123;SDS011;5616;42.692;23.312;2022-07-29T08:27:23;21.08;;;12.82;;
11123;SDS011;5616;42.692;23.312;2022-07-29T08:29:51;6.95;;;3.38;;
11123;SDS011;5616;42.692;23.312;2022-07-29T08:32:18;7.43;;;3.97;;
11123;SDS011;5616;42.692;23.312;2022-07-29T08:34:45;4.45;;;2.65;;
11123;SDS011;5616;42.692;23.312;2022-07-29T08:37:12;4.70;;;3.03;;
11123;SDS011;5616;42.692;23.312;2022-07-29T08:39:39;4.93;;;3.70;;
11123;SDS011;5616;42.692;23.312;2022-07-29T08:42:06;2.72;;;2.53;;
11123;SDS011;5616;42.692;23.312;2022-07-29T08:44:36;7.03;;;2.97;;
11123;SDS011;5616;42.692;23.312;2022-07-29T08:47:03;6.60;;;4.03;;
11123;SDS011;5616;42.692;23.312;2022-07-29T08:49:32;3.25;;;2.90;;
11123;SDS011;5616;42.692;23.312;2022-07-29T08:51:59;5.93;;;2.72;;
11123;SDS011;5616;42.692;23.312;2022-07-29T08:54:26;5.03;;;2.75;;
11123;SDS011;5616;42.692;23.312;2022-07-29T08:56:54;3.30;;;2.63;;
11123;SDS011;5616;42.692;23.312;2022-07-29T08:59:22;2.70;;;2.28;;
11123;SDS011;5616;42.692;23.312;2022-07-29T09:01:53;5.53;;;2.30;;
11123;SDS011;5616;42.692;23.312;2022-07-29T09:04:21;7.53;;;4.13;;
11123;SDS011;5616;42.692;23.312;2022-07-29T09:06:51;3.70;;;2.55;;
11123;SDS011;5616;42.692;23.312;2022-07-29T09:09:20;2.40;;;2.10;;
11123;SDS011;5616;42.692;23.312;2022-07-29T09:11:48;3.58;;;2.75;;
11123;SDS011;5616;42.692;23.312;2022-07-29T09:14:15;2.83;;;2.53;;
11123;SDS011;5616;42.692;23.312;2022-07-29T09:16:45;5.35;;;3.40;;
11123;SDS011;5616;42.692;23.312;2022-07-29T09:19:26;3.38;;;3.00;;
11123;SDS011;5616;42.692;23.312;2022-07-29T09:21:55;4.55;;;2.67;;
11123;SDS011;5616;42.692;23.312;2022-07-29T09:24:27;2.53;;;2.33;;
11123;SDS011;5616;42.692;23.312;2022-07-29T09:27:06;3.30;;;2.55;;
11123;SDS011;5616;42.692;23.312;2022-07-29T09:29:45;2.80;;;2.47;;
11123;SDS011;5616;42.692;23.312;2022-07-29T09:32:12;5.10;;;2.38;;
11123;SDS011;5616;42.692;23.312;2022-07-29T09:34:41;4.18;;;3.25;;
11123;SDS011;5616;42.692;23.312;2022-07-29T09:37:08;5.03;;;3.50;;
11123;SDS011;5616;42.692;23.312;2022-07-29T09:39:35;5.03;;;3.65;;
11123;SDS011;5616;42.692;23.312;2022-07-29T09:42:09;8.02;;;6.00;;
11123;SDS011;5616;42.692;23.312;2022-07-29T09:44:43;6.10;;;3.83;;
11123;SDS011;5616;42.692;23.312;2022-07-29T09:47:13;3.60;;;3.30;;
11123;SDS011;5616;42.692;23.312;2022-07-29T09:49:51;3.53;;;3.22;;
11123;SDS011;5616;42.692;23.312;2022-07-29T09:52:22;3.60;;;3.30;;
11123;SDS011;5616;42.692;23.312;2022-07-29T09:54:49;4.28;;;3.10;;
11123;SDS011;5616;42.692;23.312;2022-07-29T09:57:24;4.55;;;3.35;;
11123;SDS011;5616;42.692;23.312;2022-07-29T09:59:56;10.10;;;6.10;;
11123;SDS011;5616;42.692;23.312;2022-07-29T10:02:27;10.05;;;5.40;;
11123;SDS011;5616;42.692;23.312;2022-07-29T10:04:57;6.63;;;3.42;;
11123;SDS011;5616;42.692;23.312;2022-07-29T10:07:24;7.53;;;4.45;;
11123;SDS011;5616;42.692;23.312;2022-07-29T10:09:52;9.35;;;5.47;;
11123;SDS011;5616;42.692;23.312;2022-07-29T10:12:21;5.55;;;3.80;;
11123;SDS011;5616;42.692;23.312;2022-07-29T10:14:48;4.00;;;3.55;;
11123;SDS011;5616;42.692;23.312;2022-07-29T10:17:16;5.75;;;3.58;;
11123;SDS011;5616;42.692;23.312;2022-07-29T10:19:43;5.85;;;3.45;;
11123;SDS011;5616;42.692;23.312;2022-07-29T10:22:12;4.22;;;3.25;;
11123;SDS011;5616;42.692;23.312;2022-07-29T10:24:39;8.25;;;3.50;;
11123;SDS011;5616;42.692;23.312;2022-07-29T10:27:07;5.20;;;3.63;;
11123;SDS011;5616;42.692;23.312;2022-07-29T10:29:35;3.65;;;3.35;;
11123;SDS011;5616;42.692;23.312;2022-07-29T10:32:08;3.00;;;2.70;;
11123;SDS011;5616;42.692;23.312;2022-07-29T10:34:47;4.82;;;3.25;;
11123;SDS011;5616;42.692;23.312;2022-07-29T10:37:33;4.13;;;3.22;;
11123;SDS011;5616;42.692;23.312;2022-07-29T10:40:16;3.20;;;2.90;;
11123;SDS011;5616;42.692;23.312;2022-07-29T10:43:07;5.32;;;2.80;;
11123;SDS011;5616;42.692;23.312;2022-07-29T10:45:44;3.33;;;2.95;;
11123;SDS011;5616;42.692;23.312;2022-07-29T10:48:12;4.10;;;2.60;;
11123;SDS011;5616;42.692;23.312;2022-07-29T10:56:22;4.43;;;3.30;;
11123;SDS011;5616;42.692;23.312;2022-07-29T11:01:51;3.72;;;3.20;;
11123;SDS011;5616;42.692;23.312;2022-07-29T11:07:22;10.25;;;5.53;;
11123;SDS011;5616;42.692;23.312;2022-07-29T11:12:48;5.78;;;3.72;;
11123;SDS011;5616;42.692;23.312;2022-07-29T11:15:16;6.40;;;3.88;;
11123;SDS011;5616;42.692;23.312;2022-07-29T11:18:05;6.50;;;4.00;;
11123;SDS011;5616;42.692;23.312;2022-07-29T11:20:33;5.38;;;3.83;;
11123;SDS011;5616;42.692;23.312;2022-07-29T11:23:14;11.38;;;7.03;;
11123;SDS011;5616;42.692;23.312;2022-07-29T11:25:46;12.43;;;8.32;;
11123;SDS011;5616;42.692;23.312;2022-07-29T11:28:57;3.90;;;3.47;;
11123;SDS011;5616;42.692;23.312;2022-07-29T11:31:33;5.93;;;4.85;;
11123;SDS011;5616;42.692;23.312;2022-07-29T11:34:20;6.10;;;3.97;;
11123;SDS011;5616;42.692;23.312;2022-07-29T11:39:41;3.63;;;3.30;;
11123;SDS011;5616;42.692;23.312;2022-07-29T11:45:12;5.88;;;4.78;;
11123;SDS011;5616;42.692;23.312;2022-07-29T11:47:48;5.95;;;5.28;;
11123;SDS011;5616;42.692;23.312;2022-07-29T11:50:17;4.20;;;3.67;;
11123;SDS011;5616;42.692;23.312;2022-07-29T11:52:53;5.55;;;3.60;;
11123;SDS011;5616;42.692;23.312;2022-07-29T11:55:22;4.15;;;3.75;;
11123;SDS011;5616;42.692;23.312;2022-07-29T11:57:52;4.43;;;3.20;;
11123;SDS011;5616;42.692;23.312;2022-07-29T12:00:21;5.53;;;4.35;;
11123;SDS011;5616;42.692;23.312;2022-07-29T12:02:50;6.03;;;3.60;;
11123;SDS011;5616;42.692;23.312;2022-07-29T12:05:17;4.85;;;3.88;;
11123;SDS011;5616;42.692;23.312;2022-07-29T12:07:46;4.22;;;3.83;;
11123;SDS011;5616;42.692;23.312;2022-07-29T12:10:13;7.15;;;4.15;;
11123;SDS011;5616;42.692;23.312;2022-07-29T12:12:41;4.65;;;4.00;;
11123;SDS011;5616;42.692;23.312;2022-07-29T12:15:13;4.00;;;3.70;;
11123;SDS011;5616;42.692;23.312;2022-07-29T12:17:42;7.28;;;4.47;;
11123;SDS011;5616;42.692;23.312;2022-07-29T12:20:10;3.97;;;3.58;;
11123;SDS011;5616;42.692;23.312;2022-07-29T12:22:40;4.13;;;3.78;;
11123;SDS011;5616;42.692;23.312;2022-07-29T12:25:10;6.35;;;4.65;;
11123;SDS011;5616;42.692;23.312;2022-07-29T12:27:40;6.70;;;4.90;;
11123;SDS011;5616;42.692;23.312;2022-07-29T12:30:09;3.85;;;3.55;;
11123;SDS011;5616;42.692;23.312;2022-07-29T12:32:39;3.83;;;3.40;;
11123;SDS011;5616;42.692;23.312;2022-07-29T12:35:08;4.78;;;3.45;;
11123;SDS011;5616;42.692;23.312;2022-07-29T12:37:37;4.47;;;4.00;;
11123;SDS011;5616;42.692;23.312;2022-07-29T12:40:05;5.30;;;3.85;;
11123;SDS011;5616;42.692;23.312;2022-07-29T12:42:33;4.50;;;4.10;;
11123;SDS011;5616;42.692;23.312;2022-07-29T12:45:00;5.72;;;3.42;;
11123;SDS011;5616;42.692;23.312;2022-07-29T12:47:27;4.13;;;3.72;;
11123;SDS011;5616;42.692;23.312;2022-07-29T12:50:08;5.13;;;4.60;;
11123;SDS011;5616;42.692;23.312;2022-07-29T12:52:36;6.13;;;5.53;;
11123;SDS011;5616;42.692;23.312;2022-07-29T12:55:03;3.88;;;3.58;;
11123;SDS011;5616;42.692;23.312;2022-07-29T12:57:31;4.22;;;3.92;;
11123;SDS011;5616;42.692;23.312;2022-07-29T13:00:11;4.50;;;4.10;;
11123;SDS011;5616;42.692;23.312;2022-07-29T13:02:40;5.20;;;4.70;;
11123;SDS011;5616;42.692;23.312;2022-07-29T13:05:10;4.10;;;3.70;;
11123;SDS011;5616;42.692;23.312;2022-07-29T13:07:38;5.20;;;4.53;;
11123;SDS011;5616;42.692;23.312;2022-07-29T13:10:12;4.45;;;4.05;;
11123;SDS011;5616;42.692;23.312;2022-07-29T13:15:33;5.78;;;5.28;;
11123;SDS011;5616;42.692;23.312;2022-07-29T13:18:00;4.72;;;4.32;;
11123;SDS011;5616;42.692;23.312;2022-07-29T13:20:29;5.03;;;4.57;;
11123;SDS011;5616;42.692;23.312;2022-07-29T13:22:56;4.50;;;4.10;;
11123;SDS011;5616;42.692;23.312;2022-07-29T13:25:25;4.85;;;4.22;;
11123;SDS011;5616;42.692;23.312;2022-07-29T13:27:53;5.53;;;5.03;;
11123;SDS011;5616;42.692;23.312;2022-07-29T13:30:21;4.70;;;3.97;;
11123;SDS011;5616;42.692;23.312;2022-07-29T13:32:49;4.20;;;3.90;;
11123;SDS011;5616;42.692;23.312;2022-07-29T13:35:17;4.85;;;4.40;;
11123;SDS011;5616;42.692;23.312;2022-07-29T13:37:46;4.45;;;4.05;;
11123;SDS011;5616;42.692;23.312;2022-07-29T13:40:13;4.65;;;4.25;;
11123;SDS011;5616;42.692;23.312;2022-07-29T13:42:41;5.20;;;4.70;;
11123;SDS011;5616;42.692;23.312;2022-07-29T13:45:09;4.45;;;4.03;;
11123;SDS011;5616;42.692;23.312;2022-07-29T13:47:37;4.40;;;3.97;;
11123;SDS011;5616;42.692;23.312;2022-07-29T13:50:04;4.80;;;4.40;;
11123;SDS011;5616;42.692;23.312;2022-07-29T13:52:32;7.35;;;4.18;;
11123;SDS011;5616;42.692;23.312;2022-07-29T13:55:01;4.90;;;4.35;;
11123;SDS011;5616;42.692;23.312;2022-07-29T13:57:28;4.60;;;4.20;;
11123;SDS011;5616;42.692;23.312;2022-07-29T13:59:56;4.18;;;3.78;;
11123;SDS011;5616;42.692;23.312;2022-07-29T14:02:23;4.03;;;3.70;;
11123;SDS011;5616;42.692;23.312;2022-07-29T14:04:50;4.03;;;3.67;;
11123;SDS011;5616;42.692;23.312;2022-07-29T14:07:17;4.10;;;3.80;;
11123;SDS011;5616;42.692;23.312;2022-07-29T14:09:43;4.20;;;3.80;;
11123;SDS011;5616;42.692;23.312;2022-07-29T14:12:12;4.30;;;3.90;;
11123;SDS011;5616;42.692;23.312;2022-07-29T14:14:39;4.40;;;4.00;;
11123;SDS011;5616;42.692;23.312;2022-07-29T14:17:06;4.50;;;4.10;;
11123;SDS011;5616;42.692;23.312;2022-07-29T14:19:33;4.38;;;3.97;;
11123;SDS011;5616;42.692;23.312;2022-07-29T14:22:03;4.57;;;4.18;;
11123;SDS011;5616;42.692;23.312;2022-07-29T14:24:30;5.15;;;3.97;;
11123;SDS011;5616;42.692;23.312;2022-07-29T14:26:57;4.65;;;4.25;;
11123;SDS011;5616;42.692;23.312;2022-07-29T14:29:26;4.47;;;4.00;;
11123;SDS011;5616;42.692;23.312;2022-07-29T14:31:53;5.35;;;4.10;;
11123;SDS011;5616;42.692;23.312;2022-07-29T14:34:20;4.68;;;4.10;;
11123;SDS011;5616;42.692;23.312;2022-07-29T14:36:47;4.50;;;4.10;;
11123;SDS011;5616;42.692;23.312;2022-07-29T14:39:14;5.65;;;4.03;;
11123;SDS011;5616;42.692;23.312;2022-07-29T14:41:42;7.05;;;4.10;;
11123;SDS011;5616;42.692;23.312;2022-07-29T14:44:09;4.78;;;4.28;;
11123;SDS011;5616;42.692;23.312;2022-07-29T14:46:37;5.05;;;4.47;;
11123;SDS011;5616;42.692;23.312;2022-07-29T14:49:05;4.55;;;4.10;;
11123;SDS011;5616;42.692;23.312;2022-07-29T14:51:32;4.30;;;3.90;;
11123;SDS011;5616;42.692;23.312;2022-07-29T14:53:59;6.45;;;4.43;;
11123;SDS011;5616;42.692;23.312;2022-07-29T14:56:26;6.18;;;4.22;;
11123;SDS011;5616;42.692;23.312;2022-07-29T14:58:55;4.97;;;3.60;;
11123;SDS011;5616;42.692;23.312;2022-07-29T15:01:22;4.88;;;4.47;;
11123;SDS011;5616;42.692;23.312;2022-07-29T15:03:50;8.23;;;5.00;;
11123;SDS011;5616;42.692;23.312;2022-07-29T15:06:17;4.97;;;4.47;;
11123;SDS011;5616;42.692;23.312;2022-07-29T15:08:44;4.88;;;4.47;;
11123;SDS011;5616;42.692;23.312;2022-07-29T15:11:11;4.95;;;4.40;;
11123;SDS011;5616;42.692;23.312;2022-07-29T15:13:38;4.60;;;4.30;;